sensor_id;sensor_type;location;lat;lon;timestamp;P1;durP1;ratioP1;P2;durP2;ratioP2
16766;SDS011;8501;49.926;8.404;2022-12-19T00:01:43;69.83;;;26.17;;
16766;SDS011;8501;49.926;8.404;2022-12-19T00:04:09;64.20;;;26.27;;
16766;SDS011;8501;49.926;8.404;2022-12-19T00:06:37;68.83;;;25.93;;
16766;SDS011;8501;49.926;8.404;2022-12-19T00:09:03;68.70;;;25.90;;
16766;SDS011;8501;49.926;8.404;2022-12-19T00:11:29;64.40;;;25.20;;
16766;SDS011;8501;49.926;8.404;2022-12-19T00:13:56;71.33;;;25.77;;
16766;SDS011;8501;49.926;8.404;2022-12-19T00:16:23;68.03;;;26.50;;
16766;SDS011;8501;49.926;8.404;2022-12-19T00:18:53;66.37;;;26.13;;
16766;SDS011;8501;49.926;8.404;2022-12-19T00:21:22;74.57;;;26.47;;
16766;SDS011;8501;49.926;8.404;2022-12-19T00:23:49;63.63;;;25.60;;
16766;SDS011;8501;49.926;8.404;2022-12-19T00:26:16;71.23;;;27.20;;
16766;SDS011;8501;49.926;8.404;2022-12-19T00:29:02;71.30;;;26.10;;
16766;SDS011;8501;49.926;8.404;2022-12-19T00:31:30;67.77;;;25.77;;
16766;SDS011;8501;49.926;8.404;2022-12-19T00:33:57;71.37;;;26.80;;
16766;SDS011;8501;49.926;8.404;2022-12-19T00:36:24;70.03;;;25.60;;
16766;SDS011;8501;49.926;8.404;2022-12-19T00:38:51;71.63;;;26.90;;
16766;SDS011;8501;49.926;8.404;2022-12-19T00:41:21;71.43;;;27.20;;
16766;SDS011;8501;49.926;8.404;2022-12-19T00:43:55;71.20;;;26.33;;
16766;SDS011;8501;49.926;8.404;2022-12-19T00:46:22;70.03;;;26.07;;
16766;SDS011;8501;49.926;8.404;2022-12-19T00:48:48;68.87;;;26.43;;
16766;SDS011;8501;49.926;8.404;2022-12-19T00:51:15;76.13;;;26.80;;
16766;SDS011;8501;49.926;8.404;2022-12-19T00:53:43;73.03;;;26.87;;
16766;SDS011;8501;49.926;8.404;2022-12-19T00:56:14;63.77;;;25.87;;
16766;SDS011;8501;49.926;8.404;2022-12-19T00:58:41;72.93;;;26.93;;
16766;SDS011;8501;49.926;8.404;2022-12-19T01:01:08;64.87;;;26.20;;
16766;SDS011;8501;49.926;8.404;2022-12-19T01:03:45;65.27;;;25.83;;
16766;SDS011;8501;49.926;8.404;2022-12-19T01:06:11;71.97;;;25.80;;
16766;SDS011;8501;49.926;8.404;2022-12-19T01:08:36;72.67;;;25.20;;
16766;SDS011;8501;49.926;8.404;2022-12-19T01:11:02;72.53;;;25.40;;
16766;SDS011;8501;49.926;8.404;2022-12-19T01:13:29;72.87;;;26.53;;
16766;SDS011;8501;49.926;8.404;2022-12-19T01:15:55;67.97;;;27.67;;
16766;SDS011;8501;49.926;8.404;2022-12-19T01:18:26;70.10;;;24.83;;
16766;SDS011;8501;49.926;8.404;2022-12-19T01:20:51;68.10;;;26.70;;
16766;SDS011;8501;49.926;8.404;2022-12-19T01:23:17;65.70;;;25.87;;
16766;SDS011;8501;49.926;8.404;2022-12-19T01:25:47;68.47;;;25.97;;
16766;SDS011;8501;49.926;8.404;2022-12-19T01:28:16;67.67;;;24.70;;
16766;SDS011;8501;49.926;8.404;2022-12-19T01:30:42;73.77;;;26.43;;
16766;SDS011;8501;49.926;8.404;2022-12-19T01:33:08;67.07;;;26.57;;
16766;SDS011;8501;49.926;8.404;2022-12-19T01:35:36;66.30;;;25.23;;
16766;SDS011;8501;49.926;8.404;2022-12-19T01:38:02;69.50;;;26.87;;
16766;SDS011;8501;49.926;8.404;2022-12-19T01:40:28;71.77;;;26.17;;
16766;SDS011;8501;49.926;8.404;2022-12-19T01:42:53;72.23;;;26.67;;
16766;SDS011;8501;49.926;8.404;2022-12-19T01:45:22;71.70;;;26.57;;
16766;SDS011;8501;49.926;8.404;2022-12-19T01:48:14;79.33;;;27.07;;
16766;SDS011;8501;49.926;8.404;2022-12-19T01:53:19;66.57;;;25.83;;
16766;SDS011;8501;49.926;8.404;2022-12-19T01:55:47;74.13;;;26.00;;
16766;SDS011;8501;49.926;8.404;2022-12-19T01:58:12;70.37;;;26.03;;
16766;SDS011;8501;49.926;8.404;2022-12-19T02:00:42;72.90;;;26.23;;
16766;SDS011;8501;49.926;8.404;2022-12-19T02:03:13;72.23;;;27.13;;
16766;SDS011;8501;49.926;8.404;2022-12-19T02:05:44;62.83;;;25.33;;
16766;SDS011;8501;49.926;8.404;2022-12-19T02:08:10;71.23;;;25.23;;
16766;SDS011;8501;49.926;8.404;2022-12-19T02:10:37;71.23;;;26.30;;
16766;SDS011;8501;49.926;8.404;2022-12-19T02:13:03;70.97;;;26.50;;
16766;SDS011;8501;49.926;8.404;2022-12-19T02:15:31;76.50;;;25.63;;
16766;SDS011;8501;49.926;8.404;2022-12-19T02:18:11;75.50;;;27.73;;
16766;SDS011;8501;49.926;8.404;2022-12-19T02:34:45;74.53;;;27.43;;
16766;SDS011;8501;49.926;8.404;2022-12-19T02:37:19;64.97;;;27.23;;
16766;SDS011;8501;49.926;8.404;2022-12-19T02:39:50;78.17;;;27.33;;
16766;SDS011;8501;49.926;8.404;2022-12-19T02:42:39;67.50;;;26.17;;
16766;SDS011;8501;49.926;8.404;2022-12-19T02:45:08;74.33;;;26.63;;
16766;SDS011;8501;49.926;8.404;2022-12-19T02:47:36;76.53;;;26.73;;
16766;SDS011;8501;49.926;8.404;2022-12-19T02:50:03;73.57;;;27.57;;
16766;SDS011;8501;49.926;8.404;2022-12-19T02:54:56;67.53;;;26.13;;
16766;SDS011;8501;49.926;8.404;2022-12-19T02:58:10;71.57;;;27.03;;
16766;SDS011;8501;49.926;8.404;2022-12-19T03:01:05;76.60;;;27.10;;
16766;SDS011;8501;49.926;8.404;2022-12-19T03:03:45;70.33;;;26.57;;
16766;SDS011;8501;49.926;8.404;2022-12-19T03:09:08;71.73;;;27.30;;
16766;SDS011;8501;49.926;8.404;2022-12-19T03:11:37;74.07;;;27.77;;
16766;SDS011;8501;49.926;8.404;2022-12-19T03:14:06;70.40;;;26.03;;
16766;SDS011;8501;49.926;8.404;2022-12-19T03:16:35;80.83;;;26.70;;
16766;SDS011;8501;49.926;8.404;2022-12-19T03:19:02;78.60;;;27.40;;
16766;SDS011;8501;49.926;8.404;2022-12-19T03:21:35;68.93;;;25.20;;
16766;SDS011;8501;49.926;8.404;2022-12-19T03:24:03;68.60;;;25.07;;
16766;SDS011;8501;49.926;8.404;2022-12-19T03:26:35;70.40;;;26.97;;
16766;SDS011;8501;49.926;8.404;2022-12-19T03:29:16;70.33;;;25.33;;
16766;SDS011;8501;49.926;8.404;2022-12-19T03:32:06;69.30;;;25.63;;
16766;SDS011;8501;49.926;8.404;2022-12-19T03:37:27;72.83;;;25.93;;
16766;SDS011;8501;49.926;8.404;2022-12-19T03:39:58;74.80;;;27.10;;
16766;SDS011;8501;49.926;8.404;2022-12-19T03:42:29;73.37;;;26.27;;
16766;SDS011;8501;49.926;8.404;2022-12-19T03:45:17;78.67;;;27.80;;
16766;SDS011;8501;49.926;8.404;2022-12-19T03:48:13;75.73;;;27.07;;
16766;SDS011;8501;49.926;8.404;2022-12-19T03:50:52;72.37;;;26.50;;
16766;SDS011;8501;49.926;8.404;2022-12-19T03:56:11;73.50;;;27.37;;
16766;SDS011;8501;49.926;8.404;2022-12-19T03:58:50;76.00;;;27.53;;
16766;SDS011;8501;49.926;8.404;2022-12-19T04:01:21;81.37;;;27.27;;
16766;SDS011;8501;49.926;8.404;2022-12-19T04:03:48;77.80;;;27.83;;
16766;SDS011;8501;49.926;8.404;2022-12-19T04:06:15;76.17;;;27.20;;
16766;SDS011;8501;49.926;8.404;2022-12-19T04:08:41;78.33;;;26.80;;
16766;SDS011;8501;49.926;8.404;2022-12-19T04:11:08;85.27;;;28.70;;
16766;SDS011;8501;49.926;8.404;2022-12-19T04:13:40;80.03;;;28.17;;
16766;SDS011;8501;49.926;8.404;2022-12-19T04:19:28;77.00;;;28.23;;
16766;SDS011;8501;49.926;8.404;2022-12-19T04:22:30;82.57;;;27.30;;
16766;SDS011;8501;49.926;8.404;2022-12-19T04:25:00;73.93;;;26.40;;
16766;SDS011;8501;49.926;8.404;2022-12-19T04:27:31;82.83;;;28.47;;
16766;SDS011;8501;49.926;8.404;2022-12-19T04:30:04;81.57;;;27.07;;
16766;SDS011;8501;49.926;8.404;2022-12-19T04:32:32;79.70;;;27.27;;
16766;SDS011;8501;49.926;8.404;2022-12-19T04:34:59;80.83;;;28.23;;
16766;SDS011;8501;49.926;8.404;2022-12-19T04:37:26;86.90;;;29.33;;
16766;SDS011;8501;49.926;8.404;2022-12-19T04:39:52;81.57;;;29.33;;
16766;SDS011;8501;49.926;8.404;2022-12-19T04:42:18;82.83;;;28.47;;
16766;SDS011;8501;49.926;8.404;2022-12-19T04:44:43;86.30;;;29.43;;
16766;SDS011;8501;49.926;8.404;2022-12-19T04:47:09;82.43;;;28.97;;
16766;SDS011;8501;49.926;8.404;2022-12-19T04:49:34;76.20;;;27.67;;
16766;SDS011;8501;49.926;8.404;2022-12-19T04:52:00;77.13;;;27.77;;
16766;SDS011;8501;49.926;8.404;2022-12-19T04:54:25;80.17;;;28.30;;
16766;SDS011;8501;49.926;8.404;2022-12-19T04:56:51;83.47;;;28.60;;
16766;SDS011;8501;49.926;8.404;2022-12-19T04:59:17;77.73;;;27.70;;
16766;SDS011;8501;49.926;8.404;2022-12-19T05:01:43;84.23;;;28.63;;
16766;SDS011;8501;49.926;8.404;2022-12-19T05:04:09;81.17;;;29.53;;
16766;SDS011;8501;49.926;8.404;2022-12-19T05:06:35;82.03;;;28.17;;
16766;SDS011;8501;49.926;8.404;2022-12-19T05:09:00;84.40;;;29.27;;
16766;SDS011;8501;49.926;8.404;2022-12-19T05:11:26;75.07;;;27.87;;
16766;SDS011;8501;49.926;8.404;2022-12-19T05:13:51;82.20;;;28.03;;
16766;SDS011;8501;49.926;8.404;2022-12-19T05:16:17;81.77;;;28.57;;
16766;SDS011;8501;49.926;8.404;2022-12-19T05:18:42;76.40;;;27.30;;
16766;SDS011;8501;49.926;8.404;2022-12-19T05:21:08;82.30;;;29.10;;
16766;SDS011;8501;49.926;8.404;2022-12-19T05:23:35;79.07;;;28.13;;
16766;SDS011;8501;49.926;8.404;2022-12-19T05:26:00;78.90;;;28.63;;
16766;SDS011;8501;49.926;8.404;2022-12-19T05:28:27;79.13;;;29.13;;
16766;SDS011;8501;49.926;8.404;2022-12-19T05:31:01;80.77;;;29.00;;
16766;SDS011;8501;49.926;8.404;2022-12-19T05:33:31;85.40;;;28.50;;
16766;SDS011;8501;49.926;8.404;2022-12-19T05:35:57;81.20;;;28.20;;
16766;SDS011;8501;49.926;8.404;2022-12-19T05:38:22;75.93;;;28.10;;
16766;SDS011;8501;49.926;8.404;2022-12-19T05:40:48;81.03;;;29.30;;
16766;SDS011;8501;49.926;8.404;2022-12-19T05:43:14;84.50;;;29.50;;
16766;SDS011;8501;49.926;8.404;2022-12-19T05:45:39;81.23;;;30.53;;
16766;SDS011;8501;49.926;8.404;2022-12-19T05:48:05;81.67;;;28.90;;
16766;SDS011;8501;49.926;8.404;2022-12-19T05:50:30;75.37;;;28.37;;
16766;SDS011;8501;49.926;8.404;2022-12-19T05:52:56;74.13;;;28.53;;
16766;SDS011;8501;49.926;8.404;2022-12-19T05:55:21;83.87;;;30.23;;
16766;SDS011;8501;49.926;8.404;2022-12-19T05:57:47;81.50;;;30.07;;
16766;SDS011;8501;49.926;8.404;2022-12-19T06:00:13;83.60;;;29.57;;
16766;SDS011;8501;49.926;8.404;2022-12-19T06:02:39;87.67;;;30.87;;
16766;SDS011;8501;49.926;8.404;2022-12-19T06:05:04;81.67;;;28.97;;
16766;SDS011;8501;49.926;8.404;2022-12-19T06:07:33;77.07;;;29.43;;
16766;SDS011;8501;49.926;8.404;2022-12-19T06:09:59;85.87;;;30.27;;
16766;SDS011;8501;49.926;8.404;2022-12-19T06:12:24;82.17;;;30.10;;
16766;SDS011;8501;49.926;8.404;2022-12-19T06:14:50;78.10;;;28.73;;
16766;SDS011;8501;49.926;8.404;2022-12-19T06:17:15;80.20;;;30.17;;
16766;SDS011;8501;49.926;8.404;2022-12-19T06:19:41;88.83;;;30.53;;
16766;SDS011;8501;49.926;8.404;2022-12-19T06:22:07;82.83;;;29.70;;
16766;SDS011;8501;49.926;8.404;2022-12-19T06:24:33;82.40;;;30.17;;
16766;SDS011;8501;49.926;8.404;2022-12-19T06:26:59;84.90;;;30.30;;
16766;SDS011;8501;49.926;8.404;2022-12-19T06:29:24;78.50;;;28.33;;
16766;SDS011;8501;49.926;8.404;2022-12-19T06:31:50;86.60;;;30.67;;
16766;SDS011;8501;49.926;8.404;2022-12-19T06:34:15;80.07;;;29.83;;
16766;SDS011;8501;49.926;8.404;2022-12-19T06:36:41;86.77;;;29.57;;
16766;SDS011;8501;49.926;8.404;2022-12-19T06:39:08;82.83;;;28.63;;
16766;SDS011;8501;49.926;8.404;2022-12-19T06:41:37;77.60;;;29.40;;
16766;SDS011;8501;49.926;8.404;2022-12-19T06:44:21;88.50;;;30.00;;
16766;SDS011;8501;49.926;8.404;2022-12-19T06:46:46;92.47;;;32.00;;
16766;SDS011;8501;49.926;8.404;2022-12-19T06:49:12;82.33;;;31.23;;
16766;SDS011;8501;49.926;8.404;2022-12-19T06:51:37;89.63;;;32.47;;
16766;SDS011;8501;49.926;8.404;2022-12-19T06:54:03;95.77;;;33.00;;
16766;SDS011;8501;49.926;8.404;2022-12-19T06:56:33;83.90;;;31.97;;
16766;SDS011;8501;49.926;8.404;2022-12-19T06:58:59;98.17;;;34.40;;
16766;SDS011;8501;49.926;8.404;2022-12-19T07:04:41;93.97;;;32.20;;
16766;SDS011;8501;49.926;8.404;2022-12-19T07:07:11;94.47;;;32.30;;
16766;SDS011;8501;49.926;8.404;2022-12-19T07:09:36;93.90;;;33.73;;
16766;SDS011;8501;49.926;8.404;2022-12-19T07:12:02;84.20;;;31.67;;
16766;SDS011;8501;49.926;8.404;2022-12-19T07:14:27;86.37;;;30.43;;
16766;SDS011;8501;49.926;8.404;2022-12-19T07:16:53;85.43;;;30.63;;
16766;SDS011;8501;49.926;8.404;2022-12-19T07:19:21;83.10;;;30.13;;
16766;SDS011;8501;49.926;8.404;2022-12-19T07:21:47;97.87;;;32.43;;
16766;SDS011;8501;49.926;8.404;2022-12-19T07:24:13;93.43;;;32.77;;
16766;SDS011;8501;49.926;8.404;2022-12-19T07:26:39;92.87;;;30.60;;
16766;SDS011;8501;49.926;8.404;2022-12-19T07:29:07;89.83;;;31.63;;
16766;SDS011;8501;49.926;8.404;2022-12-19T07:31:34;88.93;;;32.17;;
16766;SDS011;8501;49.926;8.404;2022-12-19T07:34:00;89.83;;;32.43;;
16766;SDS011;8501;49.926;8.404;2022-12-19T07:36:25;93.03;;;32.83;;
16766;SDS011;8501;49.926;8.404;2022-12-19T07:38:51;92.07;;;31.93;;
16766;SDS011;8501;49.926;8.404;2022-12-19T07:41:16;94.77;;;31.73;;
16766;SDS011;8501;49.926;8.404;2022-12-19T07:43:42;90.40;;;31.17;;
16766;SDS011;8501;49.926;8.404;2022-12-19T07:46:09;97.00;;;32.83;;
16766;SDS011;8501;49.926;8.404;2022-12-19T07:48:35;86.23;;;30.90;;
16766;SDS011;8501;49.926;8.404;2022-12-19T07:51:00;88.87;;;30.80;;
16766;SDS011;8501;49.926;8.404;2022-12-19T07:53:26;86.03;;;31.97;;
16766;SDS011;8501;49.926;8.404;2022-12-19T07:55:52;88.70;;;32.17;;
16766;SDS011;8501;49.926;8.404;2022-12-19T07:58:17;92.97;;;32.40;;
16766;SDS011;8501;49.926;8.404;2022-12-19T08:00:43;91.47;;;32.43;;
16766;SDS011;8501;49.926;8.404;2022-12-19T08:03:08;97.00;;;34.43;;
16766;SDS011;8501;49.926;8.404;2022-12-19T08:05:34;97.17;;;33.53;;
16766;SDS011;8501;49.926;8.404;2022-12-19T08:08:00;86.53;;;30.33;;
16766;SDS011;8501;49.926;8.404;2022-12-19T08:10:25;89.83;;;31.93;;
16766;SDS011;8501;49.926;8.404;2022-12-19T08:12:51;92.40;;;31.73;;
16766;SDS011;8501;49.926;8.404;2022-12-19T08:15:16;87.33;;;32.80;;
16766;SDS011;8501;49.926;8.404;2022-12-19T08:17:42;87.73;;;31.23;;
16766;SDS011;8501;49.926;8.404;2022-12-19T08:20:08;91.03;;;31.83;;
16766;SDS011;8501;49.926;8.404;2022-12-19T08:22:35;87.73;;;32.17;;
16766;SDS011;8501;49.926;8.404;2022-12-19T08:25:01;83.93;;;31.20;;
16766;SDS011;8501;49.926;8.404;2022-12-19T08:27:27;89.30;;;32.60;;
16766;SDS011;8501;49.926;8.404;2022-12-19T08:29:52;94.27;;;33.07;;
16766;SDS011;8501;49.926;8.404;2022-12-19T08:32:18;99.87;;;33.57;;
16766;SDS011;8501;49.926;8.404;2022-12-19T08:34:43;91.80;;;33.77;;
16766;SDS011;8501;49.926;8.404;2022-12-19T08:37:09;94.13;;;33.13;;
16766;SDS011;8501;49.926;8.404;2022-12-19T08:39:35;98.43;;;34.50;;
16766;SDS011;8501;49.926;8.404;2022-12-19T08:42:00;96.77;;;34.60;;
16766;SDS011;8501;49.926;8.404;2022-12-19T08:44:26;93.23;;;34.53;;
16766;SDS011;8501;49.926;8.404;2022-12-19T08:46:51;97.60;;;35.90;;
16766;SDS011;8501;49.926;8.404;2022-12-19T08:49:17;99.60;;;34.73;;
16766;SDS011;8501;49.926;8.404;2022-12-19T08:51:43;95.50;;;35.30;;
16766;SDS011;8501;49.926;8.404;2022-12-19T08:54:09;92.03;;;34.33;;
16766;SDS011;8501;49.926;8.404;2022-12-19T08:56:36;96.17;;;34.03;;
16766;SDS011;8501;49.926;8.404;2022-12-19T08:59:03;99.63;;;35.27;;
16766;SDS011;8501;49.926;8.404;2022-12-19T09:01:28;94.50;;;33.93;;
16766;SDS011;8501;49.926;8.404;2022-12-19T09:03:57;99.90;;;36.53;;
16766;SDS011;8501;49.926;8.404;2022-12-19T09:06:23;99.10;;;35.53;;
16766;SDS011;8501;49.926;8.404;2022-12-19T09:08:49;101.03;;;35.77;;
16766;SDS011;8501;49.926;8.404;2022-12-19T09:11:16;97.27;;;34.47;;
16766;SDS011;8501;49.926;8.404;2022-12-19T09:13:43;100.10;;;37.40;;
16766;SDS011;8501;49.926;8.404;2022-12-19T09:16:17;98.13;;;35.57;;
16766;SDS011;8501;49.926;8.404;2022-12-19T09:18:45;98.17;;;36.20;;
16766;SDS011;8501;49.926;8.404;2022-12-19T09:21:15;101.63;;;36.53;;
16766;SDS011;8501;49.926;8.404;2022-12-19T09:23:49;99.87;;;36.07;;
16766;SDS011;8501;49.926;8.404;2022-12-19T09:26:16;97.80;;;36.00;;
16766;SDS011;8501;49.926;8.404;2022-12-19T09:28:43;101.93;;;35.97;;
16766;SDS011;8501;49.926;8.404;2022-12-19T09:31:11;97.67;;;34.73;;
16766;SDS011;8501;49.926;8.404;2022-12-19T09:33:38;96.77;;;35.70;;
16766;SDS011;8501;49.926;8.404;2022-12-19T09:36:04;93.93;;;34.80;;
16766;SDS011;8501;49.926;8.404;2022-12-19T09:38:31;99.10;;;37.07;;
16766;SDS011;8501;49.926;8.404;2022-12-19T09:46:53;95.30;;;35.33;;
16766;SDS011;8501;49.926;8.404;2022-12-19T09:49:26;101.40;;;36.00;;
16766;SDS011;8501;49.926;8.404;2022-12-19T09:52:06;100.80;;;35.50;;
16766;SDS011;8501;49.926;8.404;2022-12-19T09:54:43;98.23;;;35.93;;
16766;SDS011;8501;49.926;8.404;2022-12-19T09:58:04;97.77;;;35.47;;
16766;SDS011;8501;49.926;8.404;2022-12-19T10:00:21;98.43;;;34.87;;
16766;SDS011;8501;49.926;8.404;2022-12-19T10:03:20;99.17;;;35.37;;
16766;SDS011;8501;49.926;8.404;2022-12-19T10:06:01;96.67;;;34.70;;
16766;SDS011;8501;49.926;8.404;2022-12-19T10:08:33;98.27;;;34.17;;
16766;SDS011;8501;49.926;8.404;2022-12-19T10:16:15;91.73;;;34.40;;
16766;SDS011;8501;49.926;8.404;2022-12-19T10:18:55;104.33;;;35.40;;
16766;SDS011;8501;49.926;8.404;2022-12-19T10:24:23;99.87;;;35.63;;
16766;SDS011;8501;49.926;8.404;2022-12-19T10:26:58;102.37;;;36.07;;
16766;SDS011;8501;49.926;8.404;2022-12-19T10:29:36;106.33;;;37.33;;
16766;SDS011;8501;49.926;8.404;2022-12-19T10:32:12;111.63;;;38.43;;
16766;SDS011;8501;49.926;8.404;2022-12-19T10:34:40;105.67;;;37.43;;
16766;SDS011;8501;49.926;8.404;2022-12-19T10:37:11;103.23;;;37.03;;
16766;SDS011;8501;49.926;8.404;2022-12-19T10:42:53;100.30;;;35.47;;
16766;SDS011;8501;49.926;8.404;2022-12-19T10:45:43;94.33;;;35.93;;
16766;SDS011;8501;49.926;8.404;2022-12-19T10:48:18;108.17;;;37.50;;
16766;SDS011;8501;49.926;8.404;2022-12-19T10:50:45;105.57;;;35.40;;
16766;SDS011;8501;49.926;8.404;2022-12-19T10:53:11;102.20;;;37.00;;
16766;SDS011;8501;49.926;8.404;2022-12-19T10:55:49;95.00;;;36.63;;
16766;SDS011;8501;49.926;8.404;2022-12-19T11:01:13;105.63;;;36.77;;
16766;SDS011;8501;49.926;8.404;2022-12-19T11:03:47;101.00;;;36.93;;
16766;SDS011;8501;49.926;8.404;2022-12-19T11:09:35;102.37;;;36.63;;
16766;SDS011;8501;49.926;8.404;2022-12-19T11:12:09;109.53;;;37.30;;
16766;SDS011;8501;49.926;8.404;2022-12-19T11:14:41;97.30;;;36.10;;
16766;SDS011;8501;49.926;8.404;2022-12-19T11:20:16;100.23;;;36.63;;
16766;SDS011;8501;49.926;8.404;2022-12-19T11:22:47;107.33;;;38.63;;
16766;SDS011;8501;49.926;8.404;2022-12-19T11:25:22;106.07;;;36.87;;
16766;SDS011;8501;49.926;8.404;2022-12-19T11:27:57;103.27;;;38.40;;
16766;SDS011;8501;49.926;8.404;2022-12-19T11:30:23;108.60;;;37.53;;
16766;SDS011;8501;49.926;8.404;2022-12-19T11:35:54;115.33;;;39.13;;
16766;SDS011;8501;49.926;8.404;2022-12-19T11:38:32;109.47;;;37.90;;
16766;SDS011;8501;49.926;8.404;2022-12-19T11:41:03;96.97;;;38.83;;
16766;SDS011;8501;49.926;8.404;2022-12-19T11:46:13;107.17;;;37.67;;
16766;SDS011;8501;49.926;8.404;2022-12-19T11:51:27;102.93;;;36.83;;
16766;SDS011;8501;49.926;8.404;2022-12-19T11:56:51;101.37;;;37.30;;
16766;SDS011;8501;49.926;8.404;2022-12-19T11:59:18;108.63;;;37.80;;
16766;SDS011;8501;49.926;8.404;2022-12-19T12:07:19;111.23;;;38.37;;
16766;SDS011;8501;49.926;8.404;2022-12-19T12:21:00;132.93;;;47.17;;
16766;SDS011;8501;49.926;8.404;2022-12-19T12:23:58;135.20;;;51.63;;
16766;SDS011;8501;49.926;8.404;2022-12-19T12:26:32;138.43;;;47.63;;
16766;SDS011;8501;49.926;8.404;2022-12-19T12:34:48;131.80;;;44.87;;
16766;SDS011;8501;49.926;8.404;2022-12-19T12:41:18;127.30;;;44.80;;
16766;SDS011;8501;49.926;8.404;2022-12-19T12:46:18;115.87;;;40.70;;
16766;SDS011;8501;49.926;8.404;2022-12-19T12:48:54;116.83;;;40.63;;
16766;SDS011;8501;49.926;8.404;2022-12-19T12:51:25;108.83;;;38.13;;
16766;SDS011;8501;49.926;8.404;2022-12-19T12:53:53;110.83;;;38.40;;
16766;SDS011;8501;49.926;8.404;2022-12-19T12:56:27;114.10;;;39.13;;
16766;SDS011;8501;49.926;8.404;2022-12-19T13:01:31;123.87;;;40.50;;
16766;SDS011;8501;49.926;8.404;2022-12-19T13:04:06;107.33;;;39.43;;
16766;SDS011;8501;49.926;8.404;2022-12-19T13:11:59;117.97;;;39.90;;
16766;SDS011;8501;49.926;8.404;2022-12-19T13:14:49;117.30;;;39.33;;
16766;SDS011;8501;49.926;8.404;2022-12-19T13:24:54;111.33;;;39.00;;
16766;SDS011;8501;49.926;8.404;2022-12-19T13:29:52;110.57;;;41.40;;
16766;SDS011;8501;49.926;8.404;2022-12-19T13:32:24;123.03;;;42.30;;
16766;SDS011;8501;49.926;8.404;2022-12-19T13:37:42;118.00;;;42.97;;
16766;SDS011;8501;49.926;8.404;2022-12-19T13:43:14;122.00;;;41.33;;
16766;SDS011;8501;49.926;8.404;2022-12-19T13:46:16;114.43;;;40.20;;
16766;SDS011;8501;49.926;8.404;2022-12-19T13:48:43;122.20;;;41.67;;
16766;SDS011;8501;49.926;8.404;2022-12-19T13:51:12;126.47;;;42.33;;
16766;SDS011;8501;49.926;8.404;2022-12-19T13:53:38;123.10;;;42.60;;
16766;SDS011;8501;49.926;8.404;2022-12-19T13:56:13;128.17;;;42.23;;
16766;SDS011;8501;49.926;8.404;2022-12-19T13:58:48;120.37;;;42.30;;
16766;SDS011;8501;49.926;8.404;2022-12-19T14:01:26;130.77;;;42.50;;
16766;SDS011;8501;49.926;8.404;2022-12-19T14:03:55;124.90;;;42.13;;
16766;SDS011;8501;49.926;8.404;2022-12-19T14:06:26;128.73;;;42.70;;
16766;SDS011;8501;49.926;8.404;2022-12-19T14:09:01;117.90;;;41.20;;
16766;SDS011;8501;49.926;8.404;2022-12-19T14:11:29;118.40;;;41.57;;
16766;SDS011;8501;49.926;8.404;2022-12-19T14:13:57;122.53;;;43.47;;
16766;SDS011;8501;49.926;8.404;2022-12-19T14:16:44;127.07;;;44.27;;
16766;SDS011;8501;49.926;8.404;2022-12-19T14:19:16;137.30;;;49.00;;
16766;SDS011;8501;49.926;8.404;2022-12-19T14:21:49;131.57;;;47.50;;
16766;SDS011;8501;49.926;8.404;2022-12-19T14:24:16;133.90;;;45.53;;
16766;SDS011;8501;49.926;8.404;2022-12-19T14:26:48;125.93;;;46.77;;
16766;SDS011;8501;49.926;8.404;2022-12-19T14:29:35;126.47;;;44.87;;
16766;SDS011;8501;49.926;8.404;2022-12-19T14:32:08;130.33;;;45.13;;
16766;SDS011;8501;49.926;8.404;2022-12-19T14:34:34;124.10;;;42.37;;
16766;SDS011;8501;49.926;8.404;2022-12-19T14:37:00;148.50;;;49.67;;
16766;SDS011;8501;49.926;8.404;2022-12-19T14:39:32;128.50;;;43.37;;
16766;SDS011;8501;49.926;8.404;2022-12-19T14:42:01;122.43;;;43.20;;
16766;SDS011;8501;49.926;8.404;2022-12-19T14:44:58;114.80;;;42.87;;
16766;SDS011;8501;49.926;8.404;2022-12-19T14:47:34;129.33;;;42.90;;
16766;SDS011;8501;49.926;8.404;2022-12-19T14:50:24;128.73;;;42.97;;
16766;SDS011;8501;49.926;8.404;2022-12-19T14:53:13;127.17;;;43.33;;
16766;SDS011;8501;49.926;8.404;2022-12-19T14:55:41;129.80;;;44.67;;
16766;SDS011;8501;49.926;8.404;2022-12-19T14:58:30;133.73;;;47.07;;
16766;SDS011;8501;49.926;8.404;2022-12-19T15:00:59;139.93;;;46.87;;
16766;SDS011;8501;49.926;8.404;2022-12-19T15:03:40;130.63;;;46.30;;
16766;SDS011;8501;49.926;8.404;2022-12-19T15:06:14;138.70;;;49.73;;
16766;SDS011;8501;49.926;8.404;2022-12-19T15:08:42;142.03;;;49.37;;
16766;SDS011;8501;49.926;8.404;2022-12-19T15:11:23;138.40;;;49.67;;
16766;SDS011;8501;49.926;8.404;2022-12-19T15:14:22;139.00;;;47.33;;
16766;SDS011;8501;49.926;8.404;2022-12-19T15:17:02;125.40;;;47.57;;
16766;SDS011;8501;49.926;8.404;2022-12-19T15:19:36;130.13;;;47.37;;
16766;SDS011;8501;49.926;8.404;2022-12-19T15:22:01;133.30;;;46.67;;
16766;SDS011;8501;49.926;8.404;2022-12-19T15:24:27;127.17;;;48.67;;
16766;SDS011;8501;49.926;8.404;2022-12-19T15:26:52;131.67;;;48.20;;
16766;SDS011;8501;49.926;8.404;2022-12-19T15:29:18;131.53;;;47.57;;
16766;SDS011;8501;49.926;8.404;2022-12-19T15:31:44;136.87;;;49.03;;
16766;SDS011;8501;49.926;8.404;2022-12-19T15:36:55;137.97;;;47.87;;
16766;SDS011;8501;49.926;8.404;2022-12-19T15:39:21;130.97;;;46.20;;
16766;SDS011;8501;49.926;8.404;2022-12-19T15:41:49;142.87;;;49.33;;
16766;SDS011;8501;49.926;8.404;2022-12-19T15:44:23;140.23;;;48.67;;
16766;SDS011;8501;49.926;8.404;2022-12-19T15:47:03;123.33;;;46.37;;
16766;SDS011;8501;49.926;8.404;2022-12-19T15:49:31;130.60;;;49.57;;
16766;SDS011;8501;49.926;8.404;2022-12-19T15:52:01;135.93;;;48.97;;
16766;SDS011;8501;49.926;8.404;2022-12-19T15:54:26;139.07;;;48.53;;
16766;SDS011;8501;49.926;8.404;2022-12-19T15:56:52;127.77;;;47.67;;
16766;SDS011;8501;49.926;8.404;2022-12-19T15:59:33;138.77;;;49.27;;
16766;SDS011;8501;49.926;8.404;2022-12-19T16:02:11;141.37;;;50.87;;
16766;SDS011;8501;49.926;8.404;2022-12-19T16:04:39;145.50;;;52.77;;
16766;SDS011;8501;49.926;8.404;2022-12-19T16:07:12;145.73;;;58.07;;
16766;SDS011;8501;49.926;8.404;2022-12-19T16:09:39;146.90;;;55.30;;
16766;SDS011;8501;49.926;8.404;2022-12-19T16:12:04;148.50;;;56.20;;
16766;SDS011;8501;49.926;8.404;2022-12-19T16:14:30;148.37;;;55.33;;
16766;SDS011;8501;49.926;8.404;2022-12-19T16:16:55;141.13;;;52.70;;
16766;SDS011;8501;49.926;8.404;2022-12-19T16:19:25;132.17;;;51.30;;
16766;SDS011;8501;49.926;8.404;2022-12-19T16:21:53;137.87;;;51.93;;
16766;SDS011;8501;49.926;8.404;2022-12-19T16:24:20;135.67;;;51.97;;
16766;SDS011;8501;49.926;8.404;2022-12-19T16:26:53;139.23;;;50.60;;
16766;SDS011;8501;49.926;8.404;2022-12-19T16:29:21;139.97;;;53.13;;
16766;SDS011;8501;49.926;8.404;2022-12-19T16:31:50;151.17;;;52.93;;
16766;SDS011;8501;49.926;8.404;2022-12-19T16:34:17;142.40;;;56.47;;
16766;SDS011;8501;49.926;8.404;2022-12-19T16:36:45;137.93;;;55.47;;
16766;SDS011;8501;49.926;8.404;2022-12-19T16:39:11;151.83;;;58.50;;
16766;SDS011;8501;49.926;8.404;2022-12-19T16:41:36;154.30;;;60.77;;
16766;SDS011;8501;49.926;8.404;2022-12-19T16:44:03;156.93;;;59.97;;
16766;SDS011;8501;49.926;8.404;2022-12-19T16:46:33;137.37;;;52.20;;
16766;SDS011;8501;49.926;8.404;2022-12-19T16:48:59;134.97;;;52.87;;
16766;SDS011;8501;49.926;8.404;2022-12-19T16:51:25;161.57;;;64.83;;
16766;SDS011;8501;49.926;8.404;2022-12-19T16:53:52;170.90;;;68.60;;
16766;SDS011;8501;49.926;8.404;2022-12-19T16:58:56;153.50;;;60.33;;